createdAt,value
2022-12-08T00:02:03.960Z,71.61
2022-12-08T00:07:29.032Z,71.82
2022-12-08T00:12:34.408Z,71.80
2022-12-08T00:17:39.786Z,71.98
2022-12-08T00:22:45.239Z,71.55
2022-12-08T00:27:50.630Z,71.82
2022-12-08T00:32:56.082Z,71.93
2022-12-08T00:38:01.480Z,71.68
2022-12-08T00:43:07.125Z,72.06
2022-12-08T00:48:13.660Z,71.95
2022-12-08T00:53:19.105Z,71.96
2022-12-08T00:58:24.482Z,72.11
2022-12-08T01:03:29.992Z,72.03
2022-12-08T01:08:37.631Z,72.18
2022-12-08T01:13:44.145Z,72.12
2022-12-08T01:18:49.588Z,72.27
2022-12-08T01:23:55.578Z,72.03
2022-12-08T01:29:01.027Z,72.05
2022-12-08T01:34:07.242Z,72.34
2022-12-08T01:39:17.771Z,72.33
2022-12-08T01:44:26.272Z,72.19
2022-12-08T01:49:37.390Z,72.35
2022-12-08T01:54:45.814Z,71.80
2022-12-08T01:59:54.229Z,72.19
2022-12-08T02:04:59.706Z,72.07
2022-12-08T02:10:06.344Z,72.15
2022-12-08T02:15:12.448Z,72.34
2022-12-08T02:20:26.947Z,72.19
2022-12-08T02:25:40.649Z,72.16
2022-12-08T02:31:08.291Z,72.19
2022-12-08T02:36:17.006Z,72.18
2022-12-08T02:41:34.259Z,72.10
2022-12-08T02:46:48.167Z,71.96
2022-12-08T02:51:53.900Z,72.04
2022-12-08T02:57:11.223Z,71.93
2022-12-08T03:02:19.827Z,71.97
2022-12-08T03:07:43.675Z,71.98
2022-12-08T03:13:07.045Z,71.55
2022-12-08T03:18:14.504Z,71.72
2022-12-08T03:23:22.146Z,71.52
2022-12-08T03:28:27.968Z,71.37
2022-12-08T03:33:36.530Z,71.50
2022-12-08T03:38:43.950Z,71.40
2022-12-08T03:43:51.814Z,71.16
2022-12-08T03:48:57.582Z,70.77
2022-12-08T03:54:02.957Z,71.15
2022-12-08T03:59:08.876Z,71.26
2022-12-08T04:04:14.389Z,70.92
2022-12-08T04:09:19.787Z,70.83
2022-12-08T04:14:25.326Z,70.83
2022-12-08T04:19:31.614Z,70.69
2022-12-08T04:24:37.001Z,70.55
2022-12-08T04:29:42.524Z,70.44
2022-12-08T04:34:47.921Z,70.54
2022-12-08T04:39:53.874Z,70.41
2022-12-08T04:44:59.251Z,70.06
2022-12-08T04:50:06.174Z,70.06
2022-12-08T04:55:12.318Z,70.16
2022-12-08T05:00:18.692Z,70.05
2022-12-08T05:05:24.175Z,69.89
2022-12-08T05:10:29.621Z,69.69
2022-12-08T05:15:35.067Z,69.83
2022-12-08T05:20:40.445Z,70.01
2022-12-08T05:25:45.903Z,69.92
2022-12-08T05:30:51.422Z,70.19
2022-12-08T05:35:56.875Z,70.03
2022-12-08T05:41:02.555Z,70.19
2022-12-08T05:46:09.525Z,70.17
2022-12-08T05:51:24.608Z,70.00
2022-12-08T05:56:30.055Z,70.21
2022-12-08T06:01:36.361Z,70.08
2022-12-08T06:06:41.801Z,70.03
2022-12-08T06:11:47.336Z,70.06
2022-12-08T06:16:52.864Z,70.25
2022-12-08T06:21:58.445Z,70.13
2022-12-08T06:27:03.837Z,70.09
2022-12-08T06:32:09.375Z,70.19
2022-12-08T06:37:14.969Z,70.03
2022-12-08T06:42:38.407Z,70.02
2022-12-08T06:47:44.238Z,70.21
2022-12-08T06:53:02.689Z,70.03
2022-12-08T06:57:57.275Z,70.18
2022-12-08T07:03:02.891Z,70.22
2022-12-08T07:08:09.933Z,70.03
2022-12-08T07:13:15.371Z,70.04
2022-12-08T07:18:20.752Z,69.98
2022-12-08T07:23:26.221Z,70.00
2022-12-08T07:28:33.459Z,70.09
2022-12-08T07:33:38.845Z,70.28
2022-12-08T07:38:45.374Z,70.03
2022-12-08T07:43:50.804Z,70.61
2022-12-08T07:48:57.205Z,70.82
2022-12-08T07:54:02.591Z,70.99
2022-12-08T07:59:07.977Z,71.01
2022-12-08T08:04:13.389Z,71.35
2022-12-08T08:09:18.824Z,71.24
2022-12-08T08:14:24.203Z,71.45
2022-12-08T08:19:29.653Z,70.55
2022-12-08T08:24:36.483Z,71.13
2022-12-08T08:29:42.354Z,71.20
2022-12-08T08:34:47.813Z,71.93
2022-12-08T08:39:53.328Z,72.04
2022-12-08T08:44:58.727Z,71.71
2022-12-08T08:50:04.814Z,71.80
2022-12-08T08:55:10.891Z,71.67
2022-12-08T09:00:17.510Z,71.57
2022-12-08T09:05:22.958Z,71.44
2022-12-08T09:10:29.231Z,72.49
2022-12-08T09:15:34.666Z,72.24
2022-12-08T09:20:40.325Z,72.13
2022-12-08T09:25:46.834Z,72.01
2022-12-08T09:30:53.059Z,71.99
2022-12-08T09:36:00.031Z,71.92
2022-12-08T09:41:08.227Z,72.78
2022-12-08T09:46:16.945Z,72.78
2022-12-08T09:51:25.011Z,72.42
2022-12-08T09:56:36.578Z,72.03
2022-12-08T10:01:42.322Z,72.03
2022-12-08T10:07:24.363Z,72.11
2022-12-08T10:12:49.492Z,72.33
2022-12-08T10:17:57.785Z,72.74
2022-12-08T10:23:15.657Z,72.67
2022-12-08T10:28:21.109Z,72.89
2022-12-08T10:33:26.704Z,72.89
2022-12-08T10:38:40.653Z,73.17
2022-12-08T10:43:49.140Z,72.32
2022-12-08T10:49:05.794Z,72.42
2022-12-08T10:54:32.481Z,72.18
2022-12-08T10:59:39.411Z,72.10
2022-12-08T11:04:46.572Z,71.84
2022-12-08T11:09:58.332Z,72.17
2022-12-08T11:15:05.428Z,72.17
2022-12-08T11:20:13.845Z,72.41
2022-12-08T11:25:27.762Z,72.43
2022-12-08T11:30:36.239Z,72.63
2022-12-08T11:35:44.819Z,72.63
2022-12-08T11:40:53.244Z,72.12
2022-12-08T11:46:21.158Z,72.42
2022-12-08T11:51:53.357Z,72.32
2022-12-08T11:57:01.713Z,72.74
2022-12-08T12:02:09.525Z,72.47
2022-12-08T12:07:39.390Z,73.04
2022-12-08T12:13:00.387Z,73.12
2022-12-08T12:18:16.931Z,72.72
2022-12-08T12:23:42.978Z,73.53
2022-12-08T12:28:54.547Z,73.56
2022-12-08T12:34:11.777Z,73.62
2022-12-08T12:39:20.355Z,73.95
2022-12-08T12:44:31.757Z,73.95
2022-12-08T12:49:44.056Z,74.43
2022-12-08T12:54:55.817Z,74.43
2022-12-08T13:00:04.246Z,74.43
2022-12-08T13:05:29.120Z,74.39
2022-12-08T13:10:37.404Z,74.94
2022-12-08T13:15:54.012Z,75.00
2022-12-08T13:21:08.822Z,75.16
2022-12-08T13:26:23.474Z,75.33
2022-12-08T13:31:51.265Z,75.43
2022-12-08T13:37:16.683Z,75.40
2022-12-08T13:42:40.024Z,75.30
2022-12-08T13:48:21.763Z,75.58
2022-12-08T13:58:33.728Z,75.96
2022-12-08T14:09:11.361Z,75.86
2022-12-08T14:14:46.022Z,76.46
2022-12-08T14:19:32.079Z,76.53
2022-12-08T14:24:37.603Z,76.55
2022-12-08T14:29:55.208Z,76.79
2022-12-08T14:35:12.711Z,76.66
2022-12-08T14:40:23.491Z,76.37
2022-12-08T14:45:28.698Z,76.35
2022-12-08T14:50:42.924Z,76.53
2022-12-08T14:55:50.138Z,77.12
2022-12-08T15:00:58.593Z,77.13
2022-12-08T15:06:09.038Z,76.89
2022-12-08T15:11:26.233Z,76.89
2022-12-08T15:16:34.713Z,76.62
2022-12-08T15:21:40.236Z,77.33
2022-12-08T15:26:48.701Z,76.55
2022-12-08T15:31:56.793Z,77.18
2022-12-08T15:37:02.171Z,77.49
2022-12-08T15:42:10.623Z,77.25
2022-12-08T15:47:24.709Z,77.45
2022-12-08T15:52:30.311Z,76.73
2022-12-08T15:58:17.381Z,77.33
2022-12-08T16:03:13.163Z,77.67
2022-12-08T16:07:53.115Z,77.62
2022-12-08T16:13:55.453Z,77.23
2022-12-08T16:18:25.325Z,77.62
2022-12-08T16:23:46.159Z,77.87
2022-12-08T16:28:53.865Z,78.03
2022-12-08T16:33:45.550Z,78.06
2022-12-08T16:38:50.930Z,77.96
2022-12-08T16:43:56.569Z,77.77
2022-12-08T16:49:02.202Z,78.31
2022-12-08T16:54:07.647Z,77.53
2022-12-08T16:59:13.114Z,77.84
2022-12-08T17:04:34.166Z,78.01
2022-12-08T17:09:28.643Z,77.94
2022-12-08T17:14:35.582Z,77.60
2022-12-08T17:19:41.015Z,78.59
2022-12-08T17:24:46.951Z,77.99
2022-12-08T17:29:52.870Z,77.92
2022-12-08T17:34:58.496Z,78.50
2022-12-08T17:40:04.931Z,78.55
2022-12-08T17:45:11.255Z,78.54
2022-12-08T17:50:16.840Z,78.29
2022-12-08T17:55:22.293Z,78.05
2022-12-08T18:00:27.743Z,78.15
2022-12-08T18:05:34.830Z,77.58
2022-12-08T18:10:40.661Z,77.95
2022-12-08T18:15:46.034Z,77.80
2022-12-08T18:20:51.814Z,77.46
2022-12-08T18:25:57.294Z,77.52
2022-12-08T18:31:03.336Z,77.38
2022-12-08T18:36:14.225Z,77.18
2022-12-08T18:41:24.584Z,77.04
2022-12-08T18:46:32.000Z,77.29
2022-12-08T18:51:38.356Z,76.86
2022-12-08T18:56:43.879Z,76.67
2022-12-08T19:01:49.700Z,76.36
2022-12-08T19:06:55.661Z,76.78
2022-12-08T19:12:01.065Z,76.96
2022-12-08T19:17:07.219Z,76.96
2022-12-08T19:22:13.240Z,77.90
2022-12-08T19:27:19.029Z,77.73
2022-12-08T19:32:24.799Z,77.69
2022-12-08T19:37:31.481Z,77.48
2022-12-08T19:42:55.089Z,77.29
2022-12-08T19:48:00.545Z,76.94
2022-12-08T19:53:08.636Z,76.74
2022-12-08T19:58:14.577Z,76.47
2022-12-08T20:03:23.178Z,76.45
2022-12-08T20:08:28.875Z,76.29
2022-12-08T20:13:44.491Z,75.76
2022-12-08T20:18:49.876Z,75.35
2022-12-08T20:23:55.619Z,76.07
2022-12-08T20:29:01.147Z,76.79
2022-12-08T20:34:06.543Z,76.51
2022-12-08T20:39:17.964Z,76.41
2022-12-08T20:44:23.674Z,76.27
2022-12-08T20:49:34.393Z,76.04
2022-12-08T20:54:37.870Z,75.83
2022-12-08T20:59:43.618Z,75.86
2022-12-08T21:04:49.313Z,75.88
2022-12-08T21:09:55.129Z,75.85
2022-12-08T21:15:00.699Z,75.72
2022-12-08T21:20:07.993Z,75.37
2022-12-08T21:25:13.817Z,75.38
2022-12-08T21:30:19.686Z,75.80
2022-12-08T21:35:25.219Z,75.78
2022-12-08T21:40:30.876Z,75.89
2022-12-08T21:45:36.552Z,75.64
2022-12-08T21:50:42.026Z,75.98
2022-12-08T21:55:47.710Z,75.91
2022-12-08T22:00:53.428Z,75.80
2022-12-08T22:05:59.202Z,75.60
2022-12-08T22:11:06.094Z,75.46
2022-12-08T22:16:15.013Z,75.42
2022-12-08T22:21:20.766Z,75.16
2022-12-08T22:26:26.353Z,75.07
2022-12-08T22:31:32.240Z,75.12
2022-12-08T22:36:38.097Z,75.11
2022-12-08T22:41:43.520Z,75.38
2022-12-08T22:46:49.190Z,75.18
2022-12-08T22:51:55.365Z,74.87
2022-12-08T22:57:00.972Z,74.81
2022-12-08T23:02:07.195Z,74.87
2022-12-08T23:07:13.138Z,75.73
2022-12-08T23:12:18.835Z,75.82
2022-12-08T23:17:24.657Z,75.55
2022-12-08T23:22:30.377Z,75.20
2022-12-08T23:27:37.326Z,74.33
2022-12-08T23:32:43.381Z,75.06
2022-12-08T23:37:49.533Z,75.46
2022-12-08T23:42:55.010Z,75.49
2022-12-08T23:48:00.675Z,74.98
2022-12-08T23:53:06.345Z,75.91
2022-12-08T23:58:11.998Z,75.72
